Terminal Aerodrome Forecast
Issued by NWS Duluth, MN

Home | Current Version | Previous Version | Text Only | Print | Product List | Glossary On
Versions: 1 2 3 4 5 6 7 8 9 10 11 12 13 14 15 16 17 18 19 20 21 22 23 24 25 26 27
000
FTUS43 KDLH 111126 AAA
TAFINL
TAF AMD
KINL 111126Z 1111/1212 VRB03KT 1SM -SN OVC020
     FM111300 VRB05KT 4SM -SN OVC020
     FM111400 35007G15KT P6SM -SN BKN020
     FM111600 34011G21KT P6SM -SN BKN020
     FM111800 34014G25KT P6SM -SN BKN025
     FM120000 33011G20KT P6SM SCT015=

USA.gov is the U.S. government's official web portal to all federal, state and local government web resources and services.